createdAt,value
2018-09-01T00:02:06.823Z,85.51
2018-09-01T00:05:10.481Z,85.98
2018-09-01T00:08:13.600Z,85.74
2018-09-01T00:11:17.077Z,85.52
2018-09-01T00:14:20.230Z,85.51
2018-09-01T00:17:28.884Z,85.67
2018-09-01T00:20:32.168Z,86.05
2018-09-01T00:23:36.513Z,86.37
2018-09-01T00:26:41.751Z,86.36
2018-09-01T00:29:45.020Z,85.10
2018-09-01T00:32:48.205Z,84.28
2018-09-01T00:35:51.647Z,85.11
2018-09-01T00:39:00.203Z,86.38
2018-09-01T00:42:03.417Z,87.08
2018-09-01T00:45:06.652Z,86.62
2018-09-01T00:48:10.480Z,86.50
2018-09-01T00:51:20.745Z,86.00
2018-09-01T00:54:24.018Z,85.80
2018-09-01T00:57:27.311Z,86.19
2018-09-01T01:00:30.615Z,86.59
2018-09-01T01:03:33.902Z,85.80
2018-09-01T01:06:37.186Z,86.52
2018-09-01T01:09:43.622Z,86.03
2018-09-01T01:12:47.903Z,85.88
2018-09-01T01:15:51.183Z,86.67
2018-09-01T01:18:57.959Z,86.60
2018-09-01T01:22:01.252Z,86.47
2018-09-01T01:25:05.112Z,86.35
2018-09-01T01:28:08.459Z,85.58
2018-09-01T01:31:12.756Z,86.23
2018-09-01T01:34:15.982Z,85.42
2018-09-01T01:37:19.375Z,85.79
2018-09-01T01:40:22.594Z,86.03
2018-09-01T01:43:25.888Z,86.06
2018-09-01T01:46:29.040Z,86.49
2018-09-01T01:49:32.338Z,86.02
2018-09-01T01:52:35.599Z,86.26
2018-09-01T01:55:38.937Z,85.75
2018-09-01T01:58:43.182Z,86.14
2018-09-01T02:01:46.555Z,85.72
2018-09-01T02:04:51.849Z,86.01
2018-09-01T02:07:55.118Z,85.76
2018-09-01T02:10:59.441Z,85.38
2018-09-01T02:14:02.650Z,84.69
2018-09-01T02:17:05.965Z,85.23
2018-09-01T02:20:09.280Z,84.87
2018-09-01T02:23:13.072Z,85.09
2018-09-01T02:26:16.346Z,84.87
2018-09-01T02:29:19.719Z,84.56
2018-09-01T02:32:23.071Z,84.77
2018-09-01T02:35:26.354Z,84.81
2018-09-01T02:38:30.685Z,84.28
2018-09-01T02:41:34.005Z,84.22
2018-09-01T02:44:37.263Z,83.29
2018-09-01T02:47:41.628Z,83.69
2018-09-01T02:50:44.807Z,83.00
2018-09-01T02:53:52.277Z,83.60
2018-09-01T02:56:55.569Z,83.66
2018-09-01T02:59:58.876Z,84.10
2018-09-01T03:03:02.009Z,84.05
2018-09-01T03:06:07.298Z,83.66
2018-09-01T03:09:11.426Z,82.90
2018-09-01T03:12:14.712Z,83.25
2018-09-01T03:15:17.916Z,83.02
2018-09-01T03:18:22.223Z,83.55
2018-09-01T03:21:25.435Z,83.86
2018-09-01T03:24:30.774Z,83.00
2018-09-01T03:27:33.959Z,82.31
2018-09-01T03:30:41.456Z,82.06
2018-09-01T03:33:44.650Z,82.97
2018-09-01T03:36:47.990Z,82.34
2018-09-01T03:39:51.338Z,82.02
2018-09-01T03:42:54.716Z,81.67
2018-09-01T03:45:57.964Z,82.59
2018-09-01T03:49:02.320Z,83.08
2018-09-01T03:52:05.693Z,81.75
2018-09-01T03:55:08.964Z,81.99
2018-09-01T03:58:13.232Z,81.62
2018-09-01T04:01:16.474Z,81.90
2018-09-01T04:04:19.831Z,80.70
2018-09-01T04:07:23.074Z,80.82
2018-09-01T04:10:26.400Z,80.46
2018-09-01T04:13:29.687Z,81.29
2018-09-01T04:16:33.049Z,80.52
2018-09-01T04:19:43.184Z,79.57
2018-09-01T04:22:46.681Z,79.74
2018-09-01T04:25:49.935Z,79.38
2018-09-01T04:28:53.222Z,79.26
2018-09-01T04:31:56.608Z,79.14
2018-09-01T04:34:59.815Z,78.44
2018-09-01T04:38:03.145Z,80.07
2018-09-01T04:41:06.433Z,79.46
2018-09-01T04:44:10.669Z,79.79
2018-09-01T04:47:13.955Z,79.50
2018-09-01T04:50:17.256Z,78.94
2018-09-01T04:53:20.545Z,79.04
2018-09-01T04:56:23.820Z,79.06
2018-09-01T04:59:28.142Z,78.15
2018-09-01T05:02:31.314Z,77.90
2018-09-01T05:05:34.676Z,78.28
2018-09-01T05:08:37.951Z,78.37
2018-09-01T05:11:41.987Z,77.20
2018-09-01T05:14:45.147Z,76.95
2018-09-01T05:17:48.520Z,77.07
2018-09-01T05:20:52.813Z,76.15
2018-09-01T05:23:56.084Z,76.48
2018-09-01T05:26:59.395Z,77.62
2018-09-01T05:30:02.755Z,78.20
2018-09-01T05:33:05.887Z,78.43
2018-09-01T05:36:09.286Z,78.35
2018-09-01T05:39:13.290Z,76.42
2018-09-01T05:42:16.499Z,75.85
2018-09-01T05:45:19.807Z,76.31
2018-09-01T05:48:23.234Z,75.25
2018-09-01T05:51:26.504Z,75.79
2018-09-01T05:54:29.905Z,75.86
2018-09-01T05:57:33.162Z,74.85
2018-09-01T06:00:37.674Z,74.80
2018-09-01T06:03:41.606Z,74.37
2018-09-01T06:06:44.802Z,73.35
2018-09-01T06:09:48.215Z,72.56
2018-09-01T06:12:51.499Z,72.61
2018-09-01T06:15:54.823Z,73.69
2018-09-01T06:18:58.091Z,73.32
2018-09-01T06:22:01.286Z,72.48
2018-09-01T06:25:04.920Z,72.41
2018-09-01T06:28:15.304Z,71.77
2018-09-01T06:31:19.526Z,72.34
2018-09-01T06:34:22.840Z,71.81
2018-09-01T06:37:26.133Z,72.31
2018-09-01T06:40:29.387Z,72.81
2018-09-01T06:43:32.550Z,71.74
2018-09-01T06:46:35.863Z,71.97
2018-09-01T06:49:39.077Z,72.04
2018-09-01T06:52:43.355Z,70.18
2018-09-01T06:55:46.692Z,69.54
2018-09-01T06:58:50.371Z,69.61
2018-09-01T07:01:53.748Z,70.12
2018-09-01T07:04:56.999Z,68.31
2018-09-01T07:08:00.299Z,67.98
2018-09-01T07:11:03.644Z,67.39
2018-09-01T07:14:06.987Z,68.55
2018-09-01T07:17:10.749Z,67.23
2018-09-01T07:20:13.987Z,67.41
2018-09-01T07:23:17.163Z,67.15
2018-09-01T07:26:20.369Z,66.93
2018-09-01T07:29:23.622Z,66.76
2018-09-01T07:32:26.887Z,67.77
2018-09-01T07:35:30.168Z,67.01
2018-09-01T07:38:33.554Z,66.76
2018-09-01T07:41:37.107Z,65.09
2018-09-01T07:44:40.814Z,61.76
2018-09-01T07:47:44.062Z,63.44
2018-09-01T07:50:48.271Z,64.35
2018-09-01T07:53:52.524Z,63.84
2018-09-01T07:56:56.829Z,63.86
2018-09-01T08:00:00.167Z,63.54
2018-09-01T08:03:03.355Z,62.33
2018-09-01T08:06:06.624Z,61.76
2018-09-01T08:09:11.865Z,61.43
2018-09-01T08:12:15.163Z,61.93
2018-09-01T08:15:19.499Z,59.81
2018-09-01T08:18:22.783Z,59.77
2018-09-01T08:21:26.092Z,57.99
2018-09-01T08:24:30.392Z,57.86
2018-09-01T08:27:36.007Z,57.19
2018-09-01T08:30:39.276Z,56.98
2018-09-01T08:33:43.723Z,57.41
2018-09-01T08:36:47.436Z,55.73
2018-09-01T08:39:50.675Z,56.33
2018-09-01T08:42:53.878Z,54.92
2018-09-01T08:45:57.167Z,54.65
2018-09-01T08:49:00.480Z,53.96
2018-09-01T08:52:03.780Z,53.69
2018-09-01T08:55:06.907Z,54.34
2018-09-01T08:58:13.868Z,54.59
2018-09-01T09:01:17.036Z,52.95
2018-09-01T09:04:20.347Z,54.26
2018-09-01T09:07:23.556Z,52.43
2018-09-01T09:10:26.978Z,52.19
2018-09-01T09:13:30.513Z,52.46
2018-09-01T09:16:33.719Z,51.51
2018-09-01T09:19:36.912Z,51.41
2018-09-01T09:22:41.292Z,51.75
2018-09-01T09:25:44.551Z,51.40
2018-09-01T09:28:47.971Z,50.52
2018-09-01T09:31:51.268Z,49.46
2018-09-01T09:34:55.580Z,48.69
2018-09-01T09:37:58.979Z,49.48
2018-09-01T09:41:02.101Z,48.34
2018-09-01T09:44:05.480Z,46.61
2018-09-01T09:47:08.763Z,47.52
2018-09-01T09:50:12.587Z,48.92
2018-09-01T09:53:15.745Z,48.03
2018-09-01T09:56:19.052Z,48.26
2018-09-01T09:59:22.357Z,47.67
2018-09-01T10:02:25.609Z,48.99
2018-09-01T10:05:29.005Z,48.74
2018-09-01T10:08:32.263Z,48.55
2018-09-01T10:11:35.492Z,47.45
2018-09-01T10:14:38.745Z,48.25
2018-09-01T10:17:42.069Z,47.80
2018-09-01T10:20:45.231Z,47.58
2018-09-01T10:23:49.705Z,47.64
2018-09-01T10:26:54.128Z,45.92
2018-09-01T10:29:57.380Z,47.47
2018-09-01T10:33:00.752Z,45.48
2018-09-01T10:36:03.988Z,44.43
2018-09-01T10:39:09.375Z,44.58
2018-09-01T10:42:12.531Z,44.49
2018-09-01T10:45:15.823Z,44.99
2018-09-01T10:48:19.263Z,44.53
2018-09-01T10:51:23.094Z,44.10
2018-09-01T10:54:26.201Z,42.74
2018-09-01T10:57:29.559Z,38.79
2018-09-01T11:00:32.856Z,38.57
2018-09-01T11:03:36.168Z,39.54
2018-09-01T11:06:39.400Z,40.13
2018-09-01T11:09:42.623Z,41.30
2018-09-01T11:12:46.980Z,40.78
2018-09-01T11:15:50.329Z,40.14
2018-09-01T11:18:54.645Z,40.75
2018-09-01T11:21:57.868Z,40.07
2018-09-01T11:25:01.165Z,40.33
2018-09-01T11:28:04.718Z,37.85
2018-09-01T11:31:08.181Z,37.43
2018-09-01T11:34:11.498Z,38.63
2018-09-01T11:37:14.756Z,38.63
2018-09-01T11:40:18.125Z,38.74
2018-09-01T11:43:23.021Z,39.49
2018-09-01T11:46:26.284Z,38.08
2018-09-01T11:49:29.578Z,36.65
2018-09-01T11:52:32.887Z,35.87
2018-09-01T11:55:37.244Z,35.08
2018-09-01T11:58:40.661Z,34.61
2018-09-01T12:01:43.921Z,35.44
2018-09-01T12:04:47.205Z,36.50
2018-09-01T12:07:50.490Z,36.87
2018-09-01T12:10:54.921Z,36.08
2018-09-01T12:13:58.090Z,37.09
2018-09-01T12:17:01.435Z,37.19
2018-09-01T12:20:04.772Z,35.93
2018-09-01T12:23:08.137Z,36.59
2018-09-01T12:26:11.324Z,35.70
2018-09-01T12:29:14.620Z,35.99
2018-09-01T12:32:17.898Z,36.46
2018-09-01T12:35:21.268Z,36.08
2018-09-01T12:38:25.187Z,35.15
2018-09-01T12:41:28.480Z,35.45
2018-09-01T12:44:31.800Z,36.62
2018-09-01T12:47:35.130Z,35.94
2018-09-01T12:50:38.267Z,35.15
2018-09-01T12:53:41.640Z,33.35
2018-09-01T12:56:45.919Z,31.99
2018-09-01T12:59:49.304Z,31.91
2018-09-01T13:02:52.588Z,30.86
2018-09-01T13:05:55.889Z,32.08
2018-09-01T13:08:59.110Z,32.21
2018-09-01T13:12:02.440Z,32.85
2018-09-01T13:15:05.702Z,33.95
2018-09-01T13:18:08.986Z,34.21
2018-09-01T13:21:12.142Z,33.92
2018-09-01T13:24:15.386Z,34.49
2018-09-01T13:27:18.639Z,35.17
2018-09-01T13:30:21.986Z,34.40
2018-09-01T13:33:26.229Z,34.66
2018-09-01T13:36:30.575Z,33.84
2018-09-01T13:39:33.822Z,32.85
2018-09-01T13:42:37.149Z,32.64
2018-09-01T13:45:41.469Z,32.25
2018-09-01T13:48:44.743Z,33.32
2018-09-01T13:51:48.068Z,31.26
2018-09-01T13:54:52.999Z,31.05
2018-09-01T13:57:56.301Z,32.12
2018-09-01T14:00:59.481Z,31.68
2018-09-01T14:04:02.967Z,30.87
2018-09-01T14:07:06.494Z,30.73
2018-09-01T14:10:09.790Z,30.08
2018-09-01T14:13:13.087Z,30.45
2018-09-01T14:16:16.383Z,31.09
2018-09-01T14:19:19.681Z,31.10
2018-09-01T14:22:24.706Z,30.71
2018-09-01T14:25:28.764Z,31.55
2018-09-01T14:28:32.116Z,31.15
2018-09-01T14:31:35.564Z,30.22
2018-09-01T14:34:38.831Z,29.43
2018-09-01T14:37:42.136Z,28.60
2018-09-01T14:40:45.384Z,28.80
2018-09-01T14:43:48.712Z,28.96
2018-09-01T14:46:52.032Z,28.26
2018-09-01T14:49:56.637Z,28.43
2018-09-01T14:53:00.030Z,28.77
2018-09-01T14:56:03.327Z,27.56
2018-09-01T14:59:07.694Z,27.07
2018-09-01T15:02:13.016Z,27.84
2018-09-01T15:05:16.447Z,27.70
2018-09-01T15:08:19.949Z,27.95
2018-09-01T15:11:24.246Z,27.60
2018-09-01T15:14:27.599Z,27.64
2018-09-01T15:17:31.003Z,28.10
2018-09-01T15:20:34.325Z,27.86
2018-09-01T15:23:37.771Z,27.44
2018-09-01T15:26:41.147Z,26.47
2018-09-01T15:29:44.451Z,27.31
2018-09-01T15:32:47.714Z,26.66
2018-09-01T15:35:51.011Z,27.01
2018-09-01T15:38:55.314Z,26.34
2018-09-01T15:41:58.651Z,26.79
2018-09-01T15:45:02.126Z,26.61
2018-09-01T15:48:05.423Z,26.35
2018-09-01T15:51:08.591Z,27.15
2018-09-01T15:54:11.927Z,26.59
2018-09-01T15:57:15.196Z,27.24
2018-09-01T16:00:18.549Z,26.61
2018-09-01T16:03:22.069Z,26.60
2018-09-01T16:06:25.349Z,26.02
2018-09-01T16:09:28.706Z,27.49
2018-09-01T16:12:33.031Z,26.86
2018-09-01T16:15:36.334Z,26.84
2018-09-01T16:18:40.680Z,27.78
2018-09-01T16:21:43.859Z,27.98
2018-09-01T16:24:47.148Z,27.62
2018-09-01T16:27:50.480Z,27.01
2018-09-01T16:30:54.580Z,27.90
2018-09-01T16:33:57.847Z,27.86
2018-09-01T16:37:03.364Z,28.60
2018-09-01T16:40:06.829Z,28.29
2018-09-01T16:43:11.050Z,28.78
2018-09-01T16:46:14.436Z,28.94
2018-09-01T16:49:17.800Z,28.83
2018-09-01T16:52:21.153Z,28.77
2018-09-01T16:55:24.427Z,29.27
2018-09-01T16:58:27.629Z,29.53
2018-09-01T17:01:30.952Z,29.85
2018-09-01T17:04:35.311Z,30.20
2018-09-01T17:07:38.525Z,30.25
2018-09-01T17:10:41.842Z,30.34
2018-09-01T17:13:46.490Z,30.46
2018-09-01T17:16:49.870Z,30.79
2018-09-01T17:19:53.245Z,30.90
2018-09-01T17:22:56.388Z,31.34
2018-09-01T17:25:59.652Z,31.26
2018-09-01T17:29:02.964Z,31.40
2018-09-01T17:32:06.450Z,31.66
2018-09-01T17:35:09.751Z,31.71
2018-09-01T17:38:13.056Z,31.92
2018-09-01T17:41:16.601Z,31.80
2018-09-01T17:44:21.197Z,32.32
2018-09-01T17:47:24.497Z,32.36
2018-09-01T17:50:27.768Z,32.83
2018-09-01T17:53:30.928Z,33.21
2018-09-01T17:56:34.545Z,33.70
2018-09-01T17:59:37.795Z,34.05
2018-09-01T18:02:41.202Z,34.04
2018-09-01T18:05:44.457Z,34.24
2018-09-01T18:08:47.804Z,34.66
2018-09-01T18:11:51.131Z,34.56
2018-09-01T18:14:54.360Z,34.64
2018-09-01T18:17:57.679Z,35.15
2018-09-01T18:21:01.300Z,35.23
2018-09-01T18:24:05.513Z,35.08
2018-09-01T18:27:08.883Z,35.38
2018-09-01T18:30:12.073Z,35.29
2018-09-01T18:33:15.595Z,35.35
2018-09-01T18:36:18.893Z,35.49
2018-09-01T18:39:22.159Z,35.83
2018-09-01T18:42:25.495Z,35.91
2018-09-01T18:45:28.659Z,36.28
2018-09-01T18:48:31.964Z,36.62
2018-09-01T18:51:35.168Z,36.84
2018-09-01T18:54:38.475Z,36.81
2018-09-01T18:57:42.860Z,36.94
2018-09-01T19:00:46.183Z,37.03
2018-09-01T19:03:49.315Z,37.53
2018-09-01T19:06:52.560Z,37.70
2018-09-01T19:09:55.884Z,37.69
2018-09-01T19:12:59.168Z,37.79
2018-09-01T19:16:02.449Z,38.14
2018-09-01T19:19:05.775Z,38.26
2018-09-01T19:22:09.793Z,38.24
2018-09-01T19:25:15.124Z,38.49
2018-09-01T19:28:20.251Z,38.44
2018-09-01T19:31:23.559Z,38.61
2018-09-01T19:34:26.757Z,38.85
2018-09-01T19:37:30.100Z,39.43
2018-09-01T19:40:33.403Z,39.54
2018-09-01T19:43:36.631Z,39.40
2018-09-01T19:46:40.807Z,39.72
2018-09-01T19:49:44.101Z,39.69
2018-09-01T19:52:47.448Z,39.83
2018-09-01T19:55:50.747Z,39.75
2018-09-01T19:58:54.076Z,39.86
2018-09-01T20:01:57.351Z,39.90
2018-09-01T20:05:00.695Z,40.82
2018-09-01T20:08:03.836Z,40.77
2018-09-01T20:11:08.121Z,40.46
2018-09-01T20:14:11.861Z,41.23
2018-09-01T20:17:15.190Z,41.25
2018-09-01T20:20:18.468Z,40.91
2018-09-01T20:23:21.757Z,41.08
2018-09-01T20:26:25.036Z,40.95
2018-09-01T20:29:28.380Z,41.03
2018-09-01T20:32:31.649Z,41.19
2018-09-01T20:35:40.453Z,41.63
2018-09-01T20:38:43.988Z,41.47
2018-09-01T20:41:47.269Z,41.55
2018-09-01T20:44:50.594Z,41.18
2018-09-01T20:47:53.900Z,41.52
2018-09-01T20:50:57.165Z,41.83
2018-09-01T20:54:01.494Z,41.89
2018-09-01T20:57:05.814Z,42.34
2018-09-01T21:00:09.103Z,42.52
2018-09-01T21:03:12.439Z,42.49
2018-09-01T21:06:15.707Z,42.81
2018-09-01T21:09:19.004Z,43.01
2018-09-01T21:12:22.332Z,43.02
2018-09-01T21:15:25.590Z,43.14
2018-09-01T21:18:28.793Z,43.25
2018-09-01T21:21:32.099Z,43.13
2018-09-01T21:24:35.394Z,43.16
2018-09-01T21:27:38.703Z,43.56
2018-09-01T21:30:42.319Z,43.84
2018-09-01T21:33:45.583Z,43.72
2018-09-01T21:36:52.198Z,44.02
2018-09-01T21:39:56.568Z,44.47
2018-09-01T21:43:00.087Z,44.24
2018-09-01T21:46:03.392Z,44.43
2018-09-01T21:49:07.806Z,44.97
2018-09-01T21:52:11.088Z,44.96
2018-09-01T21:55:14.312Z,44.80
2018-09-01T21:58:17.623Z,45.33
2018-09-01T22:01:26.254Z,45.01
2018-09-01T22:04:33.662Z,45.78
2018-09-01T22:07:36.910Z,45.77
2018-09-01T22:10:40.111Z,45.90
2018-09-01T22:13:43.423Z,46.11
2018-09-01T22:16:46.700Z,46.20
2018-09-01T22:19:50.529Z,46.50
2018-09-01T22:22:53.703Z,46.57
2018-09-01T22:25:57.012Z,46.89
2018-09-01T22:29:00.411Z,47.54
2018-09-01T22:32:03.687Z,47.51
2018-09-01T22:35:07.732Z,47.54
2018-09-01T22:38:10.983Z,47.19
2018-09-01T22:41:14.317Z,47.75
2018-09-01T22:44:17.813Z,48.39
2018-09-01T22:47:23.900Z,48.22
2018-09-01T22:50:27.175Z,48.22
2018-09-01T22:53:30.323Z,48.17
2018-09-01T22:56:33.555Z,48.21
2018-09-01T22:59:37.298Z,48.51
2018-09-01T23:02:40.561Z,48.95
2018-09-01T23:05:43.863Z,48.35
2018-09-01T23:08:47.281Z,49.55
2018-09-01T23:11:50.785Z,49.53
2018-09-01T23:14:54.090Z,50.27
2018-09-01T23:17:57.384Z,49.98
2018-09-01T23:21:00.644Z,49.68
2018-09-01T23:24:03.980Z,49.49
2018-09-01T23:27:07.272Z,50.74
2018-09-01T23:30:11.570Z,50.89
2018-09-01T23:33:14.869Z,50.52
2018-09-01T23:36:18.503Z,50.73
2018-09-01T23:39:21.791Z,50.53
2018-09-01T23:42:25.121Z,50.44
2018-09-01T23:45:28.355Z,50.54
2018-09-01T23:48:31.692Z,50.20
2018-09-01T23:51:35.200Z,50.45
2018-09-01T23:54:39.488Z,50.43
2018-09-01T23:57:42.794Z,50.81
